Time;durP1;ratioP1;P1;durP2;ratioP2;P2;SDS_P1;SDS_P2;PMS_P1;PMS_P2;Temp;Humidity;BMP_temperature;BMP_pressure;BME280_temperature;BME280_humidity;BME280_pressure;Samples;Min_cycle;Max_cycle;Signal;HPM_P1;HPM_P2
2023/07/24 00:01:17;;;;;;;;;;;;;;;21.13;34.73;99829.09;4907968;28;98143;-71
2023/07/24 00:03:44;;;;;;;;;;;;;;;21.11;34.61;99823.19;4911144;28;98472;-73
2023/07/24 00:06:11;;;;;;;;;;;;;;;21.09;34.67;99831.75;4919261;28;97855;-71
2023/07/24 00:08:38;;;;;;;;;;;;;;;21.06;34.64;99824.25;4906001;28;101396;-71
2023/07/24 00:11:08;;;;;;;;;;;;;;;21.06;34.76;99820.69;4904714;28;101550;-73
2023/07/24 00:13:36;;;;;;;;;;;;;;;21.06;34.72;99824.25;4904898;28;98462;-73
2023/07/24 00:16:07;;;;;;;;;;;;;;;21.06;34.74;99827.00;4933306;28;98263;-73
2023/07/24 00:18:34;;;;;;;;;;;;;;;21.07;34.77;99819.56;4900713;28;97976;-73
2023/07/24 00:21:01;;;;;;;;;;;;;;;21.07;34.70;99812.16;4902861;28;97887;-71
2023/07/24 00:23:27;;;;;;;;;;;;;;;21.07;34.66;99803.13;4902698;28;98372;-71
2023/07/24 00:25:54;;;;;;;;;;;;;;;21.07;34.78;99803.13;4918745;28;98255;-73
2023/07/24 00:28:20;;;;;;;;;;;;;;;21.05;34.74;99788.97;4901443;28;98161;-73
2023/07/24 00:30:46;;;;;;;;;;;;;;;21.05;34.68;99783.50;4887811;28;97993;-71
2023/07/24 00:33:13;;;;;;;;;;;;;;;21.05;34.65;99784.28;4918907;28;98087;-71
2023/07/24 00:35:41;;;;;;;;;;;;;;;21.10;34.78;99777.75;4903099;28;98975;-74
2023/07/24 00:38:08;;;;;;;;;;;;;;;21.18;34.79;99785.00;4901483;28;97926;-71
2023/07/24 00:40:34;;;;;;;;;;;;;;;21.25;34.72;99787.13;4934168;28;99179;-71
2023/07/24 00:43:00;;;;;;;;;;;;;;;21.30;34.60;99793.13;4905319;28;98950;-72
2023/07/24 00:45:26;;;;;;;;;;;;;;;21.35;34.78;99786.63;4918138;28;100177;-72
2023/07/24 00:47:53;;;;;;;;;;;;;;;21.40;34.75;99789.06;4883351;28;98180;-71
2023/07/24 00:50:19;;;;;;;;;;;;;;;21.41;34.76;99787.13;4901130;28;98269;-73
2023/07/24 00:52:45;;;;;;;;;;;;;;;21.43;34.69;99777.41;4917151;28;98177;-71
2023/07/24 00:55:12;;;;;;;;;;;;;;;21.46;34.63;99781.38;4914665;28;98439;-71
2023/07/24 00:57:38;;;;;;;;;;;;;;;21.46;34.63;99784.91;4901333;28;98257;-71
2023/07/24 01:00:04;;;;;;;;;;;;;;;21.46;34.75;99781.38;4902248;28;97997;-73
2023/07/24 01:02:31;;;;;;;;;;;;;;;21.46;34.75;99782.19;4901925;28;97908;-73
2023/07/24 01:04:57;;;;;;;;;;;;;;;21.47;34.72;99775.53;4917910;28;98373;-72
2023/07/24 01:07:24;;;;;;;;;;;;;;;21.48;34.82;99776.31;4918267;28;98524;-73
2023/07/24 01:09:51;;;;;;;;;;;;;;;21.47;34.87;99778.28;4890286;28;99585;-73
2023/07/24 01:12:46;;;;;;;;;;;;;;;21.47;34.93;99767.31;4922689;28;98384;-72
2023/07/24 01:15:33;;;;;;;;;;;;;;;21.47;34.78;99775.53;4891390;28;98753;-72
2023/07/24 01:18:04;;;;;;;;;;;;;;;21.46;34.92;99782.19;4920484;28;98186;-73
2023/07/24 01:20:30;;;;;;;;;;;;;;;21.46;34.87;99778.66;4905293;28;98164;-72
2023/07/24 01:23:13;;;;;;;;;;;;;;;21.45;34.79;99777.81;4894167;28;97908;-72
2023/07/24 01:25:55;;;;;;;;;;;;;;;21.45;34.87;99768.81;4918413;28;99681;-72
2023/07/24 01:28:22;;;;;;;;;;;;;;;21.41;34.97;99765.97;4918440;28;99145;-71
2023/07/24 01:30:48;;;;;;;;;;;;;;;21.40;35.05;99758.13;4918900;28;98063;-71
2023/07/24 01:33:16;;;;;;;;;;;;;;;21.39;34.92;99759.28;4909679;28;98330;-73
2023/07/24 01:35:43;;;;;;;;;;;;;;;21.36;34.86;99751.78;4898536;28;98262;-72
2023/07/24 01:38:13;;;;;;;;;;;;;;;21.33;34.98;99765.03;4922409;28;97986;-73
2023/07/24 01:40:43;;;;;;;;;;;;;;;21.29;34.96;99753.16;4919854;28;99393;-73
2023/07/24 01:43:09;;;;;;;;;;;;;;;21.27;34.98;99750.00;4908767;28;97949;-73
2023/07/24 01:45:36;;;;;;;;;;;;;;;21.25;34.94;99751.47;4905200;28;98899;-72
2023/07/24 01:48:08;;;;;;;;;;;;;;;21.22;35.02;99747.53;4922964;28;98401;-73
2023/07/24 01:50:34;;;;;;;;;;;;;;;21.20;35.01;99747.06;4921311;28;98254;-73
2023/07/24 01:53:02;;;;;;;;;;;;;;;21.16;35.00;99745.41;4903578;28;99686;-73
2023/07/24 01:55:29;;;;;;;;;;;;;;;21.14;35.08;99747.69;4920670;28;98187;-71
2023/07/24 01:57:59;;;;;;;;;;;;;;;21.10;34.98;99744.88;4923908;28;98143;-72
2023/07/24 02:00:25;;;;;;;;;;;;;;;21.07;35.07;99740.91;4923095;28;98456;-71
2023/07/24 02:02:52;;;;;;;;;;;;;;;21.03;34.99;99744.72;4892073;28;98102;-71
2023/07/24 02:05:18;;;;;;;;;;;;;;;21.01;35.03;99739.59;4905559;28;98415;-73
2023/07/24 02:07:45;;;;;;;;;;;;;;;20.99;35.07;99728.19;4889787;28;97972;-71
2023/07/24 02:10:12;;;;;;;;;;;;;;;20.97;35.09;99732.44;4890421;28;98380;-72
2023/07/24 02:12:39;;;;;;;;;;;;;;;20.96;35.07;99731.63;4903062;28;98039;-73
2023/07/24 02:15:06;;;;;;;;;;;;;;;20.95;34.98;99730.06;4923341;28;99550;-73
2023/07/24 02:17:32;;;;;;;;;;;;;;;20.96;35.03;99733.59;4904605;28;98091;-73
2023/07/24 02:19:59;;;;;;;;;;;;;;;20.96;35.16;99741.81;4891574;28;97855;-71
2023/07/24 02:22:25;;;;;;;;;;;;;;;20.96;35.04;99744.53;4922793;28;98224;-73
2023/07/24 02:24:52;;;;;;;;;;;;;;;20.95;35.13;99738.28;4909297;28;98027;-73
2023/07/24 02:27:31;;;;;;;;;;;;;;;20.95;35.10;99746.50;4910923;28;97989;-71
2023/07/24 02:29:59;;;;;;;;;;;;;;;20.95;35.15;99741.00;4906315;28;98388;-73
2023/07/24 02:32:26;;;;;;;;;;;;;;;20.96;34.98;99728.09;4902458;28;98468;-71
2023/07/24 02:34:53;;;;;;;;;;;;;;;20.95;35.06;99729.28;4907827;28;98750;-73
2023/07/24 02:37:19;;;;;;;;;;;;;;;20.93;34.99;99724.13;4891361;28;98143;-71
2023/07/24 02:39:46;;;;;;;;;;;;;;;20.94;35.28;99728.44;4905922;28;98436;-71
2023/07/24 02:42:12;;;;;;;;;;;;;;;20.93;35.19;99723.34;4888408;28;98385;-72
2023/07/24 02:44:38;;;;;;;;;;;;;;;20.92;35.14;99727.22;4887189;28;98047;-73
2023/07/24 02:47:05;;;;;;;;;;;;;;;20.90;35.17;99729.50;4905336;28;97951;-73
2023/07/24 02:49:32;;;;;;;;;;;;;;;20.88;35.08;99727.13;4905802;28;99260;-71
2023/07/24 02:51:59;;;;;;;;;;;;;;;20.87;35.15;99725.56;4920452;28;98191;-73
2023/07/24 02:54:27;;;;;;;;;;;;;;;20.86;35.13;99725.91;4889325;28;99423;-71
2023/07/24 02:56:58;;;;;;;;;;;;;;;20.82;35.14;99726.59;4890524;28;100014;-73
2023/07/24 02:59:25;;;;;;;;;;;;;;;20.80;35.21;99730.84;4883657;28;97997;-73
2023/07/24 03:01:51;;;;;;;;;;;;;;;20.76;35.08;99730.75;4922100;28;98923;-73
2023/07/24 03:04:17;;;;;;;;;;;;;;;20.75;35.19;99720.16;4890083;28;98176;-73
2023/07/24 03:06:44;;;;;;;;;;;;;;;20.72;35.21;99718.94;4922658;28;98167;-71
2023/07/24 03:09:11;;;;;;;;;;;;;;;20.71;35.19;99728.28;4908195;28;98640;-73
2023/07/24 03:11:37;;;;;;;;;;;;;;;20.68;35.23;99723.53;4910455;28;98908;-72
2023/07/24 03:14:07;;;;;;;;;;;;;;;20.67;35.15;99718.38;4906094;28;116981;-73
2023/07/24 03:16:33;;;;;;;;;;;;;;;20.65;35.22;99724.22;4902636;28;98414;-71
2023/07/24 03:19:00;;;;;;;;;;;;;;;20.63;35.29;99733.91;4904451;28;98845;-71
2023/07/24 03:21:27;;;;;;;;;;;;;;;20.58;35.36;99726.78;4910110;28;98312;-71
2023/07/24 03:23:54;;;;;;;;;;;;;;;20.56;35.23;99724.41;4906104;28;98090;-71
2023/07/24 03:26:20;;;;;;;;;;;;;;;20.57;35.20;99727.94;4919618;28;99328;-71
2023/07/24 03:28:47;;;;;;;;;;;;;;;20.58;35.20;99713.88;4908844;28;98775;-73
2023/07/24 03:31:13;;;;;;;;;;;;;;;20.61;35.31;99722.53;4922450;28;98192;-73
2023/07/24 03:33:41;;;;;;;;;;;;;;;20.61;35.16;99722.53;4906477;28;100431;-73
2023/07/24 03:36:08;;;;;;;;;;;;;;;20.61;35.21;99723.34;4922732;28;99435;-73
2023/07/24 03:38:35;;;;;;;;;;;;;;;20.62;35.31;99724.91;4939006;28;98413;-72
2023/07/24 03:41:02;;;;;;;;;;;;;;;20.63;35.30;99728.44;4891178;28;98044;-73
2023/07/24 03:43:29;;;;;;;;;;;;;;;20.61;35.19;99728.81;4935825;28;98059;-73
2023/07/24 03:45:56;;;;;;;;;;;;;;;20.64;35.26;99724.59;4921363;28;98195;-73
2023/07/24 03:48:22;;;;;;;;;;;;;;;20.64;35.31;99725.38;4887574;28;98168;-72
2023/07/24 03:50:51;;;;;;;;;;;;;;;20.65;35.23;99729.69;4903383;28;98200;-73
2023/07/24 03:53:17;;;;;;;;;;;;;;;20.65;35.25;99718.75;4900762;28;98491;-73
2023/07/24 03:55:44;;;;;;;;;;;;;;;20.66;35.22;99727.75;4905402;28;98250;-71
2023/07/24 03:58:11;;;;;;;;;;;;;;;20.64;35.30;99719.09;4921603;28;97895;-71
2023/07/24 04:00:38;;;;;;;;;;;;;;;20.62;35.36;99700.28;4908324;28;98105;-71
2023/07/24 04:03:04;;;;;;;;;;;;;;;20.56;35.27;99705.22;4906125;28;99109;-71
2023/07/24 04:05:30;;;;;;;;;;;;;;;20.54;35.42;99701.25;4890041;28;100074;-71
2023/07/24 04:07:58;;;;;;;;;;;;;;;20.52;35.31;99706.28;4904189;28;98157;-73
2023/07/24 04:10:24;;;;;;;;;;;;;;;20.49;35.31;99688.63;4909813;28;97976;-73
2023/07/24 04:12:52;;;;;;;;;;;;;;;20.48;35.44;99700.69;4889601;28;97987;-73
2023/07/24 04:15:19;;;;;;;;;;;;;;;20.50;35.44;99700.38;4937018;28;98175;-71
2023/07/24 04:17:45;;;;;;;;;;;;;;;20.53;35.34;99697.72;4884757;28;97894;-72
2023/07/24 04:20:12;;;;;;;;;;;;;;;20.55;35.26;99684.50;4920691;28;98346;-73
2023/07/24 04:22:39;;;;;;;;;;;;;;;20.60;35.31;99683.44;4906529;28;98503;-71
2023/07/24 04:25:06;;;;;;;;;;;;;;;20.65;35.43;99685.09;4888455;28;98058;-71
2023/07/24 04:27:33;;;;;;;;;;;;;;;20.70;35.28;99680.13;4902180;28;98571;-73
2023/07/24 04:30:00;;;;;;;;;;;;;;;20.75;35.19;99685.38;4890717;28;98076;-73
2023/07/24 04:32:30;;;;;;;;;;;;;;;20.80;35.24;99681.56;4904771;28;98354;-73
2023/07/24 04:34:57;;;;;;;;;;;;;;;20.83;35.13;99678.91;4902859;28;99916;-70
2023/07/24 04:37:24;;;;;;;;;;;;;;;20.88;35.22;99679.78;4919561;28;98219;-71
2023/07/24 04:39:51;;;;;;;;;;;;;;;20.91;35.25;99685.34;4917140;28;98449;-73
2023/07/24 04:42:18;;;;;;;;;;;;;;;20.95;35.18;99677.22;4902521;28;98800;-71
2023/07/24 04:44:45;;;;;;;;;;;;;;;21.01;35.19;99673.03;4899801;28;98128;-73
2023/07/24 04:47:12;;;;;;;;;;;;;;;21.07;35.19;99674.38;4903134;28;98711;-73
2023/07/24 04:49:38;;;;;;;;;;;;;;;21.15;35.16;99669.84;4899203;28;98254;-71
2023/07/24 04:52:05;;;;;;;;;;;;;;;21.24;34.99;99673.97;4917843;28;98364;-71
2023/07/24 04:54:32;;;;;;;;;;;;;;;21.33;35.10;99671.84;4904796;28;98290;-71
2023/07/24 04:56:58;;;;;;;;;;;;;;;21.42;35.20;99681.81;4888948;28;98432;-74
2023/07/24 04:59:25;;;;;;;;;;;;;;;21.46;35.06;99680.75;4904474;28;98056;-71
2023/07/24 05:01:52;;;;;;;;;;;;;;;21.50;35.03;99680.84;4889824;28;98322;-71
2023/07/24 05:04:19;;;;;;;;;;;;;;;21.53;35.00;99682.81;4901673;28;98423;-74
2023/07/24 05:06:46;;;;;;;;;;;;;;;21.55;35.10;99678.59;4918119;28;98910;-73
2023/07/24 05:09:14;;;;;;;;;;;;;;;21.58;35.13;99674.34;4905391;28;98323;-74
2023/07/24 05:11:44;;;;;;;;;;;;;;;21.60;34.97;99668.47;4918484;28;99398;-74
2023/07/24 05:14:10;;;;;;;;;;;;;;;21.64;35.12;99669.34;4885968;28;99654;-71
2023/07/24 05:16:38;;;;;;;;;;;;;;;21.67;35.05;99661.19;4901129;28;98397;-73
2023/07/24 05:19:06;;;;;;;;;;;;;;;21.76;35.04;99667.25;4885961;28;98997;-71
2023/07/24 05:21:35;;;;;;;;;;;;;;;21.92;34.87;99663.63;4921268;28;98257;-74
2023/07/24 05:24:02;;;;;;;;;;;;;;;22.05;34.75;99657.63;4918488;28;98187;-74
2023/07/24 05:26:29;;;;;;;;;;;;;;;22.25;34.75;99658.41;4921566;28;98283;-74
2023/07/24 05:28:57;;;;;;;;;;;;;;;22.37;34.69;99649.22;4904205;28;98157;-74
2023/07/24 05:31:24;;;;;;;;;;;;;;;22.57;34.73;99651.91;4905750;28;98207;-74
2023/07/24 05:33:51;;;;;;;;;;;;;;;22.74;34.53;99654.13;4906793;28;99125;-71
2023/07/24 05:36:17;;;;;;;;;;;;;;;22.96;34.27;99653.31;4919660;28;98609;-71
2023/07/24 05:38:44;;;;;;;;;;;;;;;23.09;34.37;99655.84;4888446;28;98472;-74
2023/07/24 05:41:11;;;;;;;;;;;;;;;23.19;34.31;99652.47;4889316;28;99074;-74
2023/07/24 05:43:38;;;;;;;;;;;;;;;23.35;34.19;99655.84;4901312;28;98094;-71
2023/07/24 05:46:06;;;;;;;;;;;;;;;23.56;34.11;99658.06;4906126;28;98935;-74
2023/07/24 05:48:33;;;;;;;;;;;;;;;23.80;34.01;99653.25;4889050;28;98145;-75
2023/07/24 05:51:01;;;;;;;;;;;;;;;24.05;34.11;99651.59;4907390;28;98064;-71
2023/07/24 05:53:27;;;;;;;;;;;;;;;24.25;34.08;99647.44;4941005;28;98013;-75
2023/07/24 05:56:01;;;;;;;;;;;;;;;24.44;33.76;99651.16;4920698;28;124262;-71
2023/07/24 05:58:29;;;;;;;;;;;;;;;24.63;34.05;99645.44;4901206;28;97984;-74
2023/07/24 06:00:56;;;;;;;;;;;;;;;25.04;33.52;99636.28;4921378;28;98228;-71
2023/07/24 06:03:24;;;;;;;;;;;;;;;25.51;33.50;99635.38;4904222;28;98582;-71
2023/07/24 06:05:53;;;;;;;;;;;;;;;26.04;33.18;99637.50;4887720;28;100905;-71
2023/07/24 06:08:20;;;;;;;;;;;;;;;26.05;33.47;99638.28;4885893;28;97982;-71
2023/07/24 06:10:53;;;;;;;;;;;;;;;26.06;33.49;99637.94;4890139;28;97996;-75
2023/07/24 06:13:19;;;;;;;;;;;;;;;26.13;33.59;99635.19;4884273;28;98800;-71
2023/07/24 06:15:48;;;;;;;;;;;;;;;26.17;33.63;99643.44;4889417;28;99332;-71
2023/07/24 06:18:14;;;;;;;;;;;;;;;26.40;33.39;99637.56;4906307;28;98431;-71
2023/07/24 06:20:42;;;;;;;;;;;;;;;26.44;33.51;99630.06;4867803;28;98273;-74
2023/07/24 06:23:10;;;;;;;;;;;;;;;26.42;33.57;99637.97;4889383;28;100467;-73
2023/07/24 06:25:40;;;;;;;;;;;;;;;26.25;33.90;99636.75;4892667;28;99583;-75
2023/07/24 06:28:07;;;;;;;;;;;;;;;26.20;33.78;99637.94;4904409;28;98125;-71
2023/07/24 06:30:33;;;;;;;;;;;;;;;26.28;33.82;99629.66;4892849;28;98280;-74
2023/07/24 06:33:00;;;;;;;;;;;;;;;26.45;33.78;99634.44;4894088;28;98039;-71
2023/07/24 06:35:27;;;;;;;;;;;;;;;26.89;33.35;99625.72;4889204;28;98233;-71
2023/07/24 06:37:53;;;;;;;;;;;;;;;28.19;32.49;99626.78;4889060;28;98033;-74
2023/07/24 06:40:22;;;;;;;;;;;;;;;28.31;32.44;99622.72;4890624;28;98578;-73
2023/07/24 06:42:52;;;;;;;;;;;;;;;29.10;31.99;99620.84;4905087;28;98383;-74
2023/07/24 06:45:19;;;;;;;;;;;;;;;29.99;31.95;99616.16;4891500;28;98163;-74
2023/07/24 06:47:45;;;;;;;;;;;;;;;30.83;31.61;99622.78;4905256;28;98675;-74
2023/07/24 06:50:14;;;;;;;;;;;;;;;32.09;30.65;99632.16;4887370;28;99746;-75
2023/07/24 06:52:41;;;;;;;;;;;;;;;32.98;30.09;99627.97;4891243;28;98119;-72
2023/07/24 06:55:09;;;;;;;;;;;;;;;33.00;30.27;99624.72;4866444;28;97837;-71
2023/07/24 06:57:35;;;;;;;;;;;;;;;32.93;30.81;99625.72;4889785;28;98233;-72
2023/07/24 07:00:02;;;;;;;;;;;;;;;32.93;31.03;99613.75;4885463;28;98126;-71
2023/07/24 07:02:30;;;;;;;;;;;;;;;32.87;31.39;99621.88;4904258;28;98211;-71
2023/07/24 07:04:56;;;;;;;;;;;;;;;33.01;31.05;99615.13;4889694;28;99438;-73
2023/07/24 07:07:24;;;;;;;;;;;;;;;33.50;30.77;99617.75;4890875;28;98354;-70
2023/07/24 07:09:50;;;;;;;;;;;;;;;33.94;30.65;99621.59;4884651;28;98171;-72
2023/07/24 07:12:17;;;;;;;;;;;;;;;33.54;31.16;99618.44;4917472;28;98733;-69
2023/07/24 07:14:44;;;;;;;;;;;;;;;34.00;31.18;99615.50;4923015;28;101265;-72
2023/07/24 07:17:11;;;;;;;;;;;;;;;34.33;30.59;99597.22;4905103;28;98436;-70
2023/07/24 07:19:37;;;;;;;;;;;;;;;34.42;30.61;99599.31;4907125;28;97874;-72
2023/07/24 07:22:05;;;;;;;;;;;;;;;34.50;31.22;99597.88;4916782;28;97791;-70
2023/07/24 07:24:32;;;;;;;;;;;;;;;34.90;30.46;99588.91;4900581;28;98660;-73
2023/07/24 07:26:58;;;;;;;;;;;;;;;35.26;30.27;99598.81;4887712;28;98194;-70
2023/07/24 07:29:25;;;;;;;;;;;;;;;35.33;30.45;99596.53;4918096;28;98540;-70
2023/07/24 07:31:51;;;;;;;;;;;;;;;35.43;30.46;99602.97;4919929;28;99348;-71
2023/07/24 07:34:18;;;;;;;;;;;;;;;35.71;30.42;99605.94;4903648;28;122736;-71
2023/07/24 07:36:45;;;;;;;;;;;;;;;34.90;31.42;99602.91;4887905;28;98458;-70
2023/07/24 07:39:12;;;;;;;;;;;;;;;34.42;31.57;99596.50;4888465;28;98038;-70
2023/07/24 07:41:41;;;;;;;;;;;;;;;33.78;32.17;99596.56;4889825;28;98480;-72
2023/07/24 07:44:11;;;;;;;;;;;;;;;33.54;32.08;99586.94;4904586;28;99361;-73
2023/07/24 07:46:37;;;;;;;;;;;;;;;34.81;30.98;99586.00;4885079;28;98145;-74
2023/07/24 07:49:04;;;;;;;;;;;;;;;35.29;30.72;99584.69;4895082;28;98039;-72
2023/07/24 07:51:30;;;;;;;;;;;;;;;35.49;30.35;99577.97;4902093;28;99837;-74
2023/07/24 07:53:57;;;;;;;;;;;;;;;35.12;30.73;99578.50;4887507;28;98208;-73
2023/07/24 07:56:23;;;;;;;;;;;;;;;34.19;31.69;99572.50;4882502;28;98541;-74
2023/07/24 07:58:49;;;;;;;;;;;;;;;33.46;32.14;99575.97;4917370;28;98418;-70
2023/07/24 08:01:16;;;;;;;;;;;;;;;32.83;32.41;99567.41;4899661;28;98199;-71
2023/07/24 08:03:42;;;;;;;;;;;;;;;32.28;33.10;99566.41;4903842;28;98361;-72
2023/07/24 08:06:09;;;;;;;;;;;;;;;31.79;33.16;99556.00;4902048;28;98435;-74
2023/07/24 08:08:35;;;;;;;;;;;;;;;31.34;33.37;99553.84;4919465;28;98911;-72
2023/07/24 08:11:09;;;;;;;;;;;;;;;31.00;33.34;99549.31;4887715;28;98740;-72
2023/07/24 08:13:36;;;;;;;;;;;;;;;30.70;33.39;99541.19;4879597;28;98718;-73
2023/07/24 08:16:03;;;;;;;;;;;;;;;30.42;33.52;99548.00;4904295;28;98910;-73
2023/07/24 08:18:30;;;;;;;;;;;;;;;30.20;33.74;99542.06;4919554;28;98176;-72
2023/07/24 08:20:56;;;;;;;;;;;;;;;29.98;33.86;99550.69;4921228;28;98532;-74
2023/07/24 08:23:25;;;;;;;;;;;;;;;29.76;33.86;99541.94;4904266;28;98075;-75
2023/07/24 08:25:55;;;;;;;;;;;;;;;29.58;33.61;99539.41;4883450;28;98082;-75
2023/07/24 08:28:21;;;;;;;;;;;;;;;29.40;33.97;99540.81;4903870;28;98669;-71
2023/07/24 08:30:57;;;;;;;;;;;;;;;29.25;33.66;99532.69;4886711;28;99638;-73
2023/07/24 08:33:23;;;;;;;;;;;;;;;29.18;33.67;99540.31;4904172;28;99120;-72
2023/07/24 08:36:04;;;;;;;;;;;;;;;29.08;33.50;99542.81;4919018;28;98223;-71
2023/07/24 08:38:30;;;;;;;;;;;;;;;28.94;33.84;99542.97;4921444;28;98430;-73
2023/07/24 08:41:10;;;;;;;;;;;;;;;28.94;33.85;99536.63;4902381;28;98245;-72
2023/07/24 08:43:38;;;;;;;;;;;;;;;28.95;33.40;99533.44;4901114;28;98099;-72
2023/07/24 08:46:05;;;;;;;;;;;;;;;28.96;33.43;99534.22;4917882;28;98321;-73
2023/07/24 08:48:35;;;;;;;;;;;;;;;28.98;33.27;99531.84;4917773;28;99391;-72
2023/07/24 08:51:13;;;;;;;;;;;;;;;29.05;33.08;99527.00;4903029;28;97957;-73
2023/07/24 08:53:40;;;;;;;;;;;;;;;29.27;33.18;99518.41;4902039;28;98076;-73
2023/07/24 08:56:12;;;;;;;;;;;;;;;29.54;33.13;99529.53;4885768;28;99422;-74
2023/07/24 08:58:40;;;;;;;;;;;;;;;29.93;32.42;99528.97;4901338;28;98282;-72
2023/07/24 09:01:06;;;;;;;;;;;;;;;31.86;31.14;99536.38;4904369;28;98536;-72
2023/07/24 09:03:32;;;;;;;;;;;;;;;34.04;29.66;99538.69;4916768;28;99320;-72
2023/07/24 09:06:01;;;;;;;;;;;;;;;35.68;28.80;99543.19;4907241;28;98525;-72
2023/07/24 09:08:32;;;;;;;;;;;;;;;36.78;28.75;99565.84;4887247;28;98031;-73
2023/07/24 09:10:59;;;;;;;;;;;;;;;36.09;29.49;99550.34;4920107;28;98405;-73
2023/07/24 09:13:26;;;;;;;;;;;;;;;35.81;29.91;99537.50;4898111;28;98727;-73
2023/07/24 09:15:52;;;;;;;;;;;;;;;37.26;28.64;99531.66;4898928;28;101203;-73
2023/07/24 09:18:19;;;;;;;;;;;;;;;38.04;28.69;99525.09;4902074;28;98288;-73
2023/07/24 09:20:47;;;;;;;;;;;;;;;38.47;28.52;99533.38;4901051;28;98183;-73
2023/07/24 09:23:14;;;;;;;;;;;;;;;38.31;29.25;99537.38;4884744;28;98056;-72
2023/07/24 09:25:42;;;;;;;;;;;;;;;37.78;29.78;99529.59;4899771;28;98522;-73
2023/07/24 09:28:14;;;;;;;;;;;;;;;37.00;30.11;99522.81;4898008;28;98052;-73
2023/07/24 09:30:42;;;;;;;;;;;;;;;36.36;30.86;99524.38;4917909;28;98056;-73
2023/07/24 09:33:08;;;;;;;;;;;;;;;35.90;30.81;99520.69;4900038;28;97941;-73
2023/07/24 09:35:35;;;;;;;;;;;;;;;35.55;31.11;99522.91;4919225;28;98133;-73
2023/07/24 09:38:06;;;;;;;;;;;;;;;35.15;31.40;99516.00;4882300;28;98168;-73
2023/07/24 09:40:46;;;;;;;;;;;;;;;35.27;31.20;99522.75;4900924;28;98897;-73
2023/07/24 09:43:19;;;;;;;;;;;;;;;35.27;31.19;99511.56;4881360;28;98329;-74
2023/07/24 09:45:46;;;;;;;;;;;;;;;35.10;31.01;99513.81;4913907;28;98756;-73
2023/07/24 09:48:14;;;;;;;;;;;;;;;35.05;31.10;99505.97;4915058;28;98116;-73
2023/07/24 09:50:45;;;;;;;;;;;;;;;35.34;30.98;99502.88;4876617;28;99131;-73
2023/07/24 09:53:13;;;;;;;;;;;;;;;35.40;30.93;99506.63;4918230;28;98265;-73
2023/07/24 09:56:04;;;;;;;;;;;;;;;35.39;30.98;99510.69;4920617;28;98111;-73
2023/07/24 09:58:34;;;;;;;;;;;;;;;35.38;30.98;99502.75;4925176;28;97948;-73
2023/07/24 10:01:05;;;;;;;;;;;;;;;35.69;30.62;99505.53;4924108;28;98239;-74
2023/07/24 10:03:35;;;;;;;;;;;;;;;35.97;30.58;99497.19;4925703;28;99375;-74
2023/07/24 10:06:01;;;;;;;;;;;;;;;36.03;30.57;99493.31;4927668;28;98109;-74
2023/07/24 10:08:28;;;;;;;;;;;;;;;35.80;30.88;99489.03;4937960;28;98578;-73
2023/07/24 10:10:54;;;;;;;;;;;;;;;35.77;30.86;99490.00;4941078;28;98318;-73
2023/07/24 10:13:22;;;;;;;;;;;;;;;35.73;30.82;99486.56;4922523;28;97866;-73
2023/07/24 10:15:49;;;;;;;;;;;;;;;35.88;30.79;99478.31;4919119;28;98275;-73
2023/07/24 10:18:17;;;;;;;;;;;;;;;36.29;30.33;99474.19;4909292;28;99490;-73
2023/07/24 10:20:44;;;;;;;;;;;;;;;36.37;30.35;99471.88;4920712;28;98116;-74
2023/07/24 10:23:16;;;;;;;;;;;;;;;36.25;30.81;99455.97;4921134;28;98030;-73
2023/07/24 10:25:45;;;;;;;;;;;;;;;36.32;30.76;99439.63;4907097;28;98264;-73
2023/07/24 10:28:12;;;;;;;;;;;;;;;36.29;30.58;99448.19;4904916;28;98916;-73
2023/07/24 10:30:39;;;;;;;;;;;;;;;36.37;30.67;99438.97;4905763;28;98133;-73
2023/07/24 10:33:13;;;;;;;;;;;;;;;37.20;29.86;99441.63;4886875;28;98749;-74
2023/07/24 10:35:43;;;;;;;;;;;;;;;37.52;30.00;99436.53;4904425;28;98181;-73
2023/07/24 10:38:10;;;;;;;;;;;;;;;37.02;29.98;99438.91;4919790;28;98189;-74
2023/07/24 10:40:36;;;;;;;;;;;;;;;36.34;30.77;99436.34;4922207;28;99477;-73
2023/07/24 10:43:10;;;;;;;;;;;;;;;35.94;30.91;99433.66;4887166;28;99595;-74
2023/07/24 10:45:48;;;;;;;;;;;;;;;37.19;29.72;99426.06;4916537;28;99265;-74
2023/07/24 10:48:14;;;;;;;;;;;;;;;37.78;29.43;99431.22;4902759;28;98133;-73
2023/07/24 10:50:46;;;;;;;;;;;;;;;38.24;29.35;99423.22;4902363;28;98125;-73
2023/07/24 10:53:15;;;;;;;;;;;;;;;38.56;29.65;99429.22;4893780;28;98080;-73
2023/07/24 10:55:43;;;;;;;;;;;;;;;38.19;29.75;99425.94;4903420;28;98646;-73
2023/07/24 10:58:11;;;;;;;;;;;;;;;38.08;30.04;99415.22;4920716;28;98402;-74
2023/07/24 11:00:41;;;;;;;;;;;;;;;38.36;29.74;99415.81;4904811;28;98086;-74
2023/07/24 11:03:13;;;;;;;;;;;;;;;39.23;29.18;99407.84;4919718;28;98266;-75
2023/07/24 11:05:41;;;;;;;;;;;;;;;39.86;28.65;99404.59;4906856;28;98482;-74
2023/07/24 11:08:15;;;;;;;;;;;;;;;40.91;28.00;99396.94;4904452;28;98356;-76
2023/07/24 11:10:49;;;;;;;;;;;;;;;39.66;29.46;99379.22;4900519;28;98102;-74
2023/07/24 11:13:16;;;;;;;;;;;;;;;39.87;29.07;99385.63;4885538;28;99756;-74
2023/07/24 11:15:42;;;;;;;;;;;;;;;39.26;29.66;99375.06;4904062;28;98493;-73
2023/07/24 11:18:08;;;;;;;;;;;;;;;39.84;29.08;99358.44;4920547;28;98065;-75
2023/07/24 11:20:45;;;;;;;;;;;;;;;41.11;28.26;99368.63;4922890;28;98987;-74
2023/07/24 11:23:12;;;;;;;;;;;;;;;39.82;29.51;99360.97;4919553;28;98236;-74
2023/07/24 11:25:40;;;;;;;;;;;;;;;38.79;30.46;99357.19;4891047;28;98083;-75
2023/07/24 11:28:09;;;;;;;;;;;;;;;38.25;30.61;99346.03;4890623;28;98172;-74
2023/07/24 11:30:35;;;;;;;;;;;;;;;37.67;31.12;99361.50;4935316;28;98568;-72
2023/07/24 11:33:10;;;;;;;;;;;;;;;37.13;31.10;99346.50;4890765;28;98256;-76
2023/07/24 11:35:40;;;;;;;;;;;;;;;37.35;30.66;99347.00;4922672;28;98616;-77
2023/07/24 11:38:09;;;;;;;;;;;;;;;37.66;30.47;99362.75;4920917;28;99461;-78
2023/07/24 11:40:37;;;;;;;;;;;;;;;38.06;29.46;99361.53;4897338;28;97928;-74
2023/07/24 11:43:04;;;;;;;;;;;;;;;39.06;29.25;99346.84;4884921;28;98539;-76
2023/07/24 11:45:41;;;;;;;;;;;;;;;39.23;29.23;99359.19;4904553;28;98264;-74
2023/07/24 11:48:11;;;;;;;;;;;;;;;39.22;29.02;99343.50;4918418;28;98104;-74
2023/07/24 11:50:48;;;;;;;;;;;;;;;38.38;29.77;99340.13;4919682;28;98113;-76
2023/07/24 11:53:25;;;;;;;;;;;;;;;38.20;29.77;99348.72;4884775;28;98055;-73
2023/07/24 11:55:53;;;;;;;;;;;;;;;37.84;29.97;99359.00;4902095;28;98503;-75
2023/07/24 11:58:21;;;;;;;;;;;;;;;37.13;30.58;99351.34;4918830;28;98451;-73
2023/07/24 12:00:48;;;;;;;;;;;;;;;36.75;31.23;99353.53;4903968;28;100853;-73
2023/07/24 12:03:35;;;;;;;;;;;;;;;36.74;30.74;99356.78;4903425;28;98712;-74
2023/07/24 12:06:02;;;;;;;;;;;;;;;37.02;30.59;99349.88;4917572;28;98164;-78
2023/07/24 12:08:35;;;;;;;;;;;;;;;36.91;30.54;99357.22;4919387;28;98366;-75
2023/07/24 12:11:02;;;;;;;;;;;;;;;36.51;30.99;99356.25;4919973;28;99981;-77
2023/07/24 12:13:32;;;;;;;;;;;;;;;36.15;31.38;99357.06;4920137;28;98019;-76
2023/07/24 12:15:58;;;;;;;;;;;;;;;35.88;31.41;99349.41;4887115;28;98110;-73
2023/07/24 12:18:24;;;;;;;;;;;;;;;35.64;31.47;99350.00;4929528;28;128278;-76
2023/07/24 12:20:50;;;;;;;;;;;;;;;35.41;31.33;99340.19;4917171;28;101295;-73
2023/07/24 12:23:16;;;;;;;;;;;;;;;35.24;31.67;99335.31;4904002;28;100072;-76
2023/07/24 12:25:43;;;;;;;;;;;;;;;35.01;31.61;99342.22;4918300;28;98336;-77
2023/07/24 12:28:10;;;;;;;;;;;;;;;34.69;31.99;99331.03;4884964;28;98191;-76
2023/07/24 12:30:36;;;;;;;;;;;;;;;34.42;32.17;99340.03;4920869;28;98797;-77
2023/07/24 12:33:02;;;;;;;;;;;;;;;34.19;31.76;99332.13;4883204;28;98195;-73
2023/07/24 12:35:28;;;;;;;;;;;;;;;33.95;32.31;99331.75;4917350;28;98153;-76
2023/07/24 12:37:54;;;;;;;;;;;;;;;33.71;32.28;99323.81;4903786;28;98052;-77
2023/07/24 12:40:20;;;;;;;;;;;;;;;33.54;32.49;99325.22;4902484;28;98334;-75
2023/07/24 12:42:47;;;;;;;;;;;;;;;33.40;32.07;99317.28;4902925;28;116178;-77
2023/07/24 12:45:13;;;;;;;;;;;;;;;33.24;32.12;99312.63;4883259;28;98106;-73
2023/07/24 12:47:39;;;;;;;;;;;;;;;33.15;32.42;99306.97;4905139;28;99060;-73
2023/07/24 12:50:06;;;;;;;;;;;;;;;33.12;32.46;99310.66;4921113;28;98288;-79